sensor_id;sensor_type;location;lat;lon;timestamp;temperature;humidity
3067;DHT22;1544;48.834;9.194;2022-09-09T00:02:33;17.20;43.90
3067;DHT22;1544;48.834;9.194;2022-09-09T00:05:19;17.20;43.80
3067;DHT22;1544;48.834;9.194;2022-09-09T00:08:02;17.20;43.50
3067;DHT22;1544;48.834;9.194;2022-09-09T00:10:39;17.20;43.10
3067;DHT22;1544;48.834;9.194;2022-09-09T00:13:33;17.30;42.90
3067;DHT22;1544;48.834;9.194;2022-09-09T00:16:19;17.20;42.40
3067;DHT22;1544;48.834;9.194;2022-09-09T00:19:10;17.20;42.20
3067;DHT22;1544;48.834;9.194;2022-09-09T00:22:18;17.20;42.00
3067;DHT22;1544;48.834;9.194;2022-09-09T00:24:56;17.20;41.90
3067;DHT22;1544;48.834;9.194;2022-09-09T00:27:44;17.30;41.90
3067;DHT22;1544;48.834;9.194;2022-09-09T00:30:29;17.30;41.80
3067;DHT22;1544;48.834;9.194;2022-09-09T00:33:11;17.30;41.80
3067;DHT22;1544;48.834;9.194;2022-09-09T00:35:54;17.30;41.70
3067;DHT22;1544;48.834;9.194;2022-09-09T00:38:35;17.30;41.60
3067;DHT22;1544;48.834;9.194;2022-09-09T00:41:22;17.40;41.80
3067;DHT22;1544;48.834;9.194;2022-09-09T00:44:32;17.40;41.50
3067;DHT22;1544;48.834;9.194;2022-09-09T00:50:12;17.40;41.20
3067;DHT22;1544;48.834;9.194;2022-09-09T00:56:16;17.50;41.10
3067;DHT22;1544;48.834;9.194;2022-09-09T00:59:28;17.50;40.90
3067;DHT22;1544;48.834;9.194;2022-09-09T01:02:28;17.50;40.70
3067;DHT22;1544;48.834;9.194;2022-09-09T01:05:19;17.50;40.50
3067;DHT22;1544;48.834;9.194;2022-09-09T01:07:58;17.50;40.40
3067;DHT22;1544;48.834;9.194;2022-09-09T01:10:50;17.60;40.40
3067;DHT22;1544;48.834;9.194;2022-09-09T01:13:35;17.60;40.30
3067;DHT22;1544;48.834;9.194;2022-09-09T01:16:15;17.60;40.10
3067;DHT22;1544;48.834;9.194;2022-09-09T01:18:52;17.70;40.00
3067;DHT22;1544;48.834;9.194;2022-09-09T01:21:52;17.70;39.90
3067;DHT22;1544;48.834;9.194;2022-09-09T01:24:42;17.70;39.80
3067;DHT22;1544;48.834;9.194;2022-09-09T01:27:53;17.70;39.70
3067;DHT22;1544;48.834;9.194;2022-09-09T01:30:33;17.80;39.70
3067;DHT22;1544;48.834;9.194;2022-09-09T01:33:17;17.80;39.70
3067;DHT22;1544;48.834;9.194;2022-09-09T01:36:02;17.80;39.80
3067;DHT22;1544;48.834;9.194;2022-09-09T01:38:45;17.80;39.80
3067;DHT22;1544;48.834;9.194;2022-09-09T01:41:21;17.70;39.60
3067;DHT22;1544;48.834;9.194;2022-09-09T01:44:05;17.70;39.50
3067;DHT22;1544;48.834;9.194;2022-09-09T01:46:42;17.70;39.30
3067;DHT22;1544;48.834;9.194;2022-09-09T01:49:23;17.70;39.10
3067;DHT22;1544;48.834;9.194;2022-09-09T01:51:58;17.70;39.00
3067;DHT22;1544;48.834;9.194;2022-09-09T01:54:38;17.80;38.80
3067;DHT22;1544;48.834;9.194;2022-09-09T01:57:24;17.80;38.60
3067;DHT22;1544;48.834;9.194;2022-09-09T02:00:09;17.70;38.40
3067;DHT22;1544;48.834;9.194;2022-09-09T02:03:05;17.80;38.30
3067;DHT22;1544;48.834;9.194;2022-09-09T02:06:36;17.70;38.10
3067;DHT22;1544;48.834;9.194;2022-09-09T02:09:24;17.80;38.10
3067;DHT22;1544;48.834;9.194;2022-09-09T02:12:14;17.70;37.90
3067;DHT22;1544;48.834;9.194;2022-09-09T02:15:03;17.60;38.00
3067;DHT22;1544;48.834;9.194;2022-09-09T02:17:52;17.60;38.00
3067;DHT22;1544;48.834;9.194;2022-09-09T02:20:30;17.60;38.20
3067;DHT22;1544;48.834;9.194;2022-09-09T02:23:11;17.50;38.20
3067;DHT22;1544;48.834;9.194;2022-09-09T02:25:49;17.50;38.30
3067;DHT22;1544;48.834;9.194;2022-09-09T02:28:31;17.40;38.30
3067;DHT22;1544;48.834;9.194;2022-09-09T02:31:07;17.40;38.40
3067;DHT22;1544;48.834;9.194;2022-09-09T02:33:59;17.40;38.50
3067;DHT22;1544;48.834;9.194;2022-09-09T02:36:37;17.30;38.70
3067;DHT22;1544;48.834;9.194;2022-09-09T02:39:14;17.30;38.90
3067;DHT22;1544;48.834;9.194;2022-09-09T02:41:49;17.20;39.10
3067;DHT22;1544;48.834;9.194;2022-09-09T02:44:26;17.20;39.20
3067;DHT22;1544;48.834;9.194;2022-09-09T02:50:29;17.10;39.40
3067;DHT22;1544;48.834;9.194;2022-09-09T02:58:42;17.00;39.70
3067;DHT22;1544;48.834;9.194;2022-09-09T03:01:18;16.90;39.80
3067;DHT22;1544;48.834;9.194;2022-09-09T03:03:53;16.80;39.90
3067;DHT22;1544;48.834;9.194;2022-09-09T03:06:30;16.80;40.20
3067;DHT22;1544;48.834;9.194;2022-09-09T03:09:14;16.80;40.50
3067;DHT22;1544;48.834;9.194;2022-09-09T03:11:49;16.70;40.70
3067;DHT22;1544;48.834;9.194;2022-09-09T03:14:25;16.70;40.90
3067;DHT22;1544;48.834;9.194;2022-09-09T03:17:01;16.60;41.20
3067;DHT22;1544;48.834;9.194;2022-09-09T03:19:42;16.60;41.40
3067;DHT22;1544;48.834;9.194;2022-09-09T03:22:20;16.60;41.80
3067;DHT22;1544;48.834;9.194;2022-09-09T03:24:56;16.60;42.20
3067;DHT22;1544;48.834;9.194;2022-09-09T03:27:31;16.60;42.40
3067;DHT22;1544;48.834;9.194;2022-09-09T03:30:06;16.60;42.50
3067;DHT22;1544;48.834;9.194;2022-09-09T03:32:42;16.50;42.40
3067;DHT22;1544;48.834;9.194;2022-09-09T03:35:22;16.50;42.60
3067;DHT22;1544;48.834;9.194;2022-09-09T03:37:57;16.50;42.70
3067;DHT22;1544;48.834;9.194;2022-09-09T03:40:33;16.40;42.90
3067;DHT22;1544;48.834;9.194;2022-09-09T03:43:08;16.40;43.00
3067;DHT22;1544;48.834;9.194;2022-09-09T03:45:47;16.30;43.40
3067;DHT22;1544;48.834;9.194;2022-09-09T03:48:24;16.40;43.80
3067;DHT22;1544;48.834;9.194;2022-09-09T03:51:00;16.30;43.90
3067;DHT22;1544;48.834;9.194;2022-09-09T03:53:38;16.40;44.00
3067;DHT22;1544;48.834;9.194;2022-09-09T03:56:13;16.40;43.90
3067;DHT22;1544;48.834;9.194;2022-09-09T03:58:48;16.40;44.00
3067;DHT22;1544;48.834;9.194;2022-09-09T04:01:23;16.40;43.90
3067;DHT22;1544;48.834;9.194;2022-09-09T04:03:58;16.50;44.20
3067;DHT22;1544;48.834;9.194;2022-09-09T04:06:33;16.40;44.00
3067;DHT22;1544;48.834;9.194;2022-09-09T04:09:08;16.50;44.10
3067;DHT22;1544;48.834;9.194;2022-09-09T04:11:44;16.50;44.10
3067;DHT22;1544;48.834;9.194;2022-09-09T04:14:21;16.50;44.30
3067;DHT22;1544;48.834;9.194;2022-09-09T04:16:56;16.50;44.50
3067;DHT22;1544;48.834;9.194;2022-09-09T04:19:33;16.60;44.50
3067;DHT22;1544;48.834;9.194;2022-09-09T04:22:09;16.60;44.60
3067;DHT22;1544;48.834;9.194;2022-09-09T04:24:44;16.60;44.70
3067;DHT22;1544;48.834;9.194;2022-09-09T04:27:24;16.70;44.80
3067;DHT22;1544;48.834;9.194;2022-09-09T04:29:59;16.70;44.70
3067;DHT22;1544;48.834;9.194;2022-09-09T04:32:37;16.70;44.50
3067;DHT22;1544;48.834;9.194;2022-09-09T04:35:13;16.70;44.50
3067;DHT22;1544;48.834;9.194;2022-09-09T04:37:48;16.80;44.50
3067;DHT22;1544;48.834;9.194;2022-09-09T04:40:24;16.80;44.40
3067;DHT22;1544;48.834;9.194;2022-09-09T04:43:01;16.80;44.30
3067;DHT22;1544;48.834;9.194;2022-09-09T04:45:39;16.80;44.30
3067;DHT22;1544;48.834;9.194;2022-09-09T04:48:15;16.90;44.20
3067;DHT22;1544;48.834;9.194;2022-09-09T04:50:58;16.90;44.10
3067;DHT22;1544;48.834;9.194;2022-09-09T04:53:36;16.80;43.80
3067;DHT22;1544;48.834;9.194;2022-09-09T04:56:15;16.80;43.80
3067;DHT22;1544;48.834;9.194;2022-09-09T04:58:56;16.70;43.90
3067;DHT22;1544;48.834;9.194;2022-09-09T05:01:41;16.70;44.00
3067;DHT22;1544;48.834;9.194;2022-09-09T05:04:16;16.60;44.00
3067;DHT22;1544;48.834;9.194;2022-09-09T05:06:51;16.60;44.00
3067;DHT22;1544;48.834;9.194;2022-09-09T05:09:26;16.60;44.00
3067;DHT22;1544;48.834;9.194;2022-09-09T05:12:02;16.60;43.90
3067;DHT22;1544;48.834;9.194;2022-09-09T05:14:41;16.60;43.80
3067;DHT22;1544;48.834;9.194;2022-09-09T05:17:18;16.60;43.70
3067;DHT22;1544;48.834;9.194;2022-09-09T05:19:53;16.60;43.60
3067;DHT22;1544;48.834;9.194;2022-09-09T05:22:28;16.70;43.60
3067;DHT22;1544;48.834;9.194;2022-09-09T05:25:03;16.80;43.40
3067;DHT22;1544;48.834;9.194;2022-09-09T05:27:39;16.80;43.10
3067;DHT22;1544;48.834;9.194;2022-09-09T05:30:14;16.80;42.90
3067;DHT22;1544;48.834;9.194;2022-09-09T05:32:49;16.90;42.90
3067;DHT22;1544;48.834;9.194;2022-09-09T05:35:26;16.90;42.70
3067;DHT22;1544;48.834;9.194;2022-09-09T05:38:01;17.00;42.70
3067;DHT22;1544;48.834;9.194;2022-09-09T05:40:36;17.10;42.60
3067;DHT22;1544;48.834;9.194;2022-09-09T05:43:11;17.20;42.70
3067;DHT22;1544;48.834;9.194;2022-09-09T05:45:48;17.20;42.60
3067;DHT22;1544;48.834;9.194;2022-09-09T05:48:23;17.20;42.60
3067;DHT22;1544;48.834;9.194;2022-09-09T05:50:59;17.30;42.50
3067;DHT22;1544;48.834;9.194;2022-09-09T05:53:34;17.30;42.40
3067;DHT22;1544;48.834;9.194;2022-09-09T05:56:15;17.30;42.30
3067;DHT22;1544;48.834;9.194;2022-09-09T05:58:54;17.40;42.30
3067;DHT22;1544;48.834;9.194;2022-09-09T06:01:32;17.50;42.30
3067;DHT22;1544;48.834;9.194;2022-09-09T06:04:09;17.60;42.20
3067;DHT22;1544;48.834;9.194;2022-09-09T06:06:46;17.60;42.00
3067;DHT22;1544;48.834;9.194;2022-09-09T06:09:24;17.70;41.80
3067;DHT22;1544;48.834;9.194;2022-09-09T06:12:01;17.70;41.70
3067;DHT22;1544;48.834;9.194;2022-09-09T06:14:38;17.80;41.60
3067;DHT22;1544;48.834;9.194;2022-09-09T06:17:20;18.00;41.30
3067;DHT22;1544;48.834;9.194;2022-09-09T06:19:55;18.10;41.10
3067;DHT22;1544;48.834;9.194;2022-09-09T06:22:30;18.20;40.90
3067;DHT22;1544;48.834;9.194;2022-09-09T06:25:06;18.30;40.70
3067;DHT22;1544;48.834;9.194;2022-09-09T06:27:48;18.40;40.50
3067;DHT22;1544;48.834;9.194;2022-09-09T06:30:24;18.50;40.40
3067;DHT22;1544;48.834;9.194;2022-09-09T06:32:59;18.60;40.30
3067;DHT22;1544;48.834;9.194;2022-09-09T06:35:35;18.60;40.00
3067;DHT22;1544;48.834;9.194;2022-09-09T06:38:11;18.70;39.90
3067;DHT22;1544;48.834;9.194;2022-09-09T06:40:53;18.80;39.50
3067;DHT22;1544;48.834;9.194;2022-09-09T06:43:31;18.90;39.30
3067;DHT22;1544;48.834;9.194;2022-09-09T06:46:13;18.90;39.00
3067;DHT22;1544;48.834;9.194;2022-09-09T06:48:49;19.00;38.80
3067;DHT22;1544;48.834;9.194;2022-09-09T06:51:34;19.20;38.80
3067;DHT22;1544;48.834;9.194;2022-09-09T06:54:11;19.30;38.00
3067;DHT22;1544;48.834;9.194;2022-09-09T06:56:49;19.30;37.90
3067;DHT22;1544;48.834;9.194;2022-09-09T06:59:29;19.40;37.90
3067;DHT22;1544;48.834;9.194;2022-09-09T07:02:07;19.50;37.70
3067;DHT22;1544;48.834;9.194;2022-09-09T07:04:42;19.60;37.70
3067;DHT22;1544;48.834;9.194;2022-09-09T07:07:18;19.70;37.60
3067;DHT22;1544;48.834;9.194;2022-09-09T07:09:53;19.80;37.60
3067;DHT22;1544;48.834;9.194;2022-09-09T07:12:28;19.90;37.60
3067;DHT22;1544;48.834;9.194;2022-09-09T07:15:06;19.90;37.30
3067;DHT22;1544;48.834;9.194;2022-09-09T07:17:41;20.10;37.40
3067;DHT22;1544;48.834;9.194;2022-09-09T07:20:16;20.30;37.30
3067;DHT22;1544;48.834;9.194;2022-09-09T07:22:55;20.40;37.10
3067;DHT22;1544;48.834;9.194;2022-09-09T07:25:31;20.60;37.20
3067;DHT22;1544;48.834;9.194;2022-09-09T07:28:06;20.60;37.10
3067;DHT22;1544;48.834;9.194;2022-09-09T07:30:43;20.70;37.10
3067;DHT22;1544;48.834;9.194;2022-09-09T07:33:18;20.80;37.00
3067;DHT22;1544;48.834;9.194;2022-09-09T07:36:08;20.90;36.70
3067;DHT22;1544;48.834;9.194;2022-09-09T07:38:52;21.00;36.70
3067;DHT22;1544;48.834;9.194;2022-09-09T07:41:36;21.20;36.70
3067;DHT22;1544;48.834;9.194;2022-09-09T07:44:24;21.20;36.60
3067;DHT22;1544;48.834;9.194;2022-09-09T07:47:09;21.40;36.60
3067;DHT22;1544;48.834;9.194;2022-09-09T07:49:51;21.50;36.30
3067;DHT22;1544;48.834;9.194;2022-09-09T07:52:33;21.70;36.20
3067;DHT22;1544;48.834;9.194;2022-09-09T07:55:11;21.70;35.90
3067;DHT22;1544;48.834;9.194;2022-09-09T07:57:46;21.50;35.70
3067;DHT22;1544;48.834;9.194;2022-09-09T08:00:22;21.40;35.70
3067;DHT22;1544;48.834;9.194;2022-09-09T08:03:02;21.20;35.80
3067;DHT22;1544;48.834;9.194;2022-09-09T08:05:38;21.20;36.00
3067;DHT22;1544;48.834;9.194;2022-09-09T08:08:16;21.10;36.20
3067;DHT22;1544;48.834;9.194;2022-09-09T08:10:51;21.10;36.20
3067;DHT22;1544;48.834;9.194;2022-09-09T08:13:27;21.00;36.30
3067;DHT22;1544;48.834;9.194;2022-09-09T08:16:11;21.10;36.70
3067;DHT22;1544;48.834;9.194;2022-09-09T08:18:58;21.10;36.30
3067;DHT22;1544;48.834;9.194;2022-09-09T08:21:36;21.10;36.30
3067;DHT22;1544;48.834;9.194;2022-09-09T08:24:14;21.10;36.20
3067;DHT22;1544;48.834;9.194;2022-09-09T08:26:54;21.00;36.20
3067;DHT22;1544;48.834;9.194;2022-09-09T08:29:31;21.10;36.40
3067;DHT22;1544;48.834;9.194;2022-09-09T08:32:07;21.00;36.10
3067;DHT22;1544;48.834;9.194;2022-09-09T08:34:44;21.00;36.10
3067;DHT22;1544;48.834;9.194;2022-09-09T08:37:25;21.00;36.10
3067;DHT22;1544;48.834;9.194;2022-09-09T08:40:02;21.20;36.10
3067;DHT22;1544;48.834;9.194;2022-09-09T08:42:47;21.40;36.10
3067;DHT22;1544;48.834;9.194;2022-09-09T08:51:55;21.40;35.40
3067;DHT22;1544;48.834;9.194;2022-09-09T08:54:33;21.40;35.20
3067;DHT22;1544;48.834;9.194;2022-09-09T08:57:28;21.50;34.80
3067;DHT22;1544;48.834;9.194;2022-09-09T09:00:04;21.50;34.70
3067;DHT22;1544;48.834;9.194;2022-09-09T09:03:05;21.60;34.80
3067;DHT22;1544;48.834;9.194;2022-09-09T09:06:06;21.70;34.40
3067;DHT22;1544;48.834;9.194;2022-09-09T09:08:59;21.80;34.20
3067;DHT22;1544;48.834;9.194;2022-09-09T09:12:10;22.00;34.10
3067;DHT22;1544;48.834;9.194;2022-09-09T09:14:56;22.20;33.50
3067;DHT22;1544;48.834;9.194;2022-09-09T09:17:34;22.60;33.20
3067;DHT22;1544;48.834;9.194;2022-09-09T09:20:15;22.90;32.60
3067;DHT22;1544;48.834;9.194;2022-09-09T09:22:54;23.00;32.30
3067;DHT22;1544;48.834;9.194;2022-09-09T09:25:39;23.10;32.60
3067;DHT22;1544;48.834;9.194;2022-09-09T09:28:29;23.00;34.40
3067;DHT22;1544;48.834;9.194;2022-09-09T09:31:14;22.60;34.20
3067;DHT22;1544;48.834;9.194;2022-09-09T09:33:54;22.30;32.90
3067;DHT22;1544;48.834;9.194;2022-09-09T09:36:53;22.20;32.60
3067;DHT22;1544;48.834;9.194;2022-09-09T09:39:33;22.10;32.60
3067;DHT22;1544;48.834;9.194;2022-09-09T09:42:33;22.00;33.10
3067;DHT22;1544;48.834;9.194;2022-09-09T09:45:31;21.80;33.50
3067;DHT22;1544;48.834;9.194;2022-09-09T09:48:11;21.70;32.80
3067;DHT22;1544;48.834;9.194;2022-09-09T09:50:54;21.60;32.50
3067;DHT22;1544;48.834;9.194;2022-09-09T09:53:34;21.40;32.40
3067;DHT22;1544;48.834;9.194;2022-09-09T09:56:13;21.30;32.20
3067;DHT22;1544;48.834;9.194;2022-09-09T09:58:51;21.30;32.30
3067;DHT22;1544;48.834;9.194;2022-09-09T10:01:34;21.50;32.10
3067;DHT22;1544;48.834;9.194;2022-09-09T10:04:22;21.70;31.30
3067;DHT22;1544;48.834;9.194;2022-09-09T10:07:11;21.80;31.40
3067;DHT22;1544;48.834;9.194;2022-09-09T10:09:57;22.00;31.30
3067;DHT22;1544;48.834;9.194;2022-09-09T10:13:13;22.10;31.20
3067;DHT22;1544;48.834;9.194;2022-09-09T10:31:19;22.80;30.80
3067;DHT22;1544;48.834;9.194;2022-09-09T10:36:55;22.90;30.90
3067;DHT22;1544;48.834;9.194;2022-09-09T10:39:39;23.10;31.00
3067;DHT22;1544;48.834;9.194;2022-09-09T10:42:20;23.20;30.50
3067;DHT22;1544;48.834;9.194;2022-09-09T10:45:19;23.40;30.50
3067;DHT22;1544;48.834;9.194;2022-09-09T10:48:30;23.60;30.40
3067;DHT22;1544;48.834;9.194;2022-09-09T10:51:22;24.00;30.10
3067;DHT22;1544;48.834;9.194;2022-09-09T10:57:36;24.70;29.70
3067;DHT22;1544;48.834;9.194;2022-09-09T11:00:18;25.10;30.00
3067;DHT22;1544;48.834;9.194;2022-09-09T11:03:02;25.30;29.60
3067;DHT22;1544;48.834;9.194;2022-09-09T11:05:43;25.40;29.40
3067;DHT22;1544;48.834;9.194;2022-09-09T11:08:24;25.60;29.40
3067;DHT22;1544;48.834;9.194;2022-09-09T11:11:17;25.60;28.90
3067;DHT22;1544;48.834;9.194;2022-09-09T11:14:21;25.40;28.80
3067;DHT22;1544;48.834;9.194;2022-09-09T11:17:23;25.10;29.30
3067;DHT22;1544;48.834;9.194;2022-09-09T11:20:01;24.60;29.60
3067;DHT22;1544;48.834;9.194;2022-09-09T11:22:42;24.00;29.90
3067;DHT22;1544;48.834;9.194;2022-09-09T11:25:43;23.40;30.00
3067;DHT22;1544;48.834;9.194;2022-09-09T11:29:52;23.00;30.50
3067;DHT22;1544;48.834;9.194;2022-09-09T11:32:54;22.60;31.10
3067;DHT22;1544;48.834;9.194;2022-09-09T11:38:46;22.20;32.70
3067;DHT22;1544;48.834;9.194;2022-09-09T11:41:23;22.20;33.00
3067;DHT22;1544;48.834;9.194;2022-09-09T11:43:58;22.10;31.40
3067;DHT22;1544;48.834;9.194;2022-09-09T11:46:36;22.00;31.10
3067;DHT22;1544;48.834;9.194;2022-09-09T11:52:23;21.90;30.90
3067;DHT22;1544;48.834;9.194;2022-09-09T11:58:15;21.90;31.30
3067;DHT22;1544;48.834;9.194;2022-09-09T12:00:51;21.90;31.60
3067;DHT22;1544;48.834;9.194;2022-09-09T12:03:46;22.00;31.40
3067;DHT22;1544;48.834;9.194;2022-09-09T12:06:29;22.20;31.00
3067;DHT22;1544;48.834;9.194;2022-09-09T12:17:43;22.80;30.40
3067;DHT22;1544;48.834;9.194;2022-09-09T12:20:31;23.00;30.40
3067;DHT22;1544;48.834;9.194;2022-09-09T12:23:18;23.20;30.40
3067;DHT22;1544;48.834;9.194;2022-09-09T12:26:26;23.40;30.40
3067;DHT22;1544;48.834;9.194;2022-09-09T12:29:43;23.60;29.80
3067;DHT22;1544;48.834;9.194;2022-09-09T12:32:39;23.80;29.90
3067;DHT22;1544;48.834;9.194;2022-09-09T12:35:21;24.20;29.70
3067;DHT22;1544;48.834;9.194;2022-09-09T12:38:01;24.30;29.70
3067;DHT22;1544;48.834;9.194;2022-09-09T12:40:37;24.50;29.60
3067;DHT22;1544;48.834;9.194;2022-09-09T12:43:22;24.70;29.50
3067;DHT22;1544;48.834;9.194;2022-09-09T12:46:01;24.90;28.80
3067;DHT22;1544;48.834;9.194;2022-09-09T12:48:40;24.80;28.90
3067;DHT22;1544;48.834;9.194;2022-09-09T12:51:30;24.70;28.50
3067;DHT22;1544;48.834;9.194;2022-09-09T12:54:12;24.60;28.30
3067;DHT22;1544;48.834;9.194;2022-09-09T12:56:49;24.60;28.50
3067;DHT22;1544;48.834;9.194;2022-09-09T12:59:36;24.80;28.60
3067;DHT22;1544;48.834;9.194;2022-09-09T13:02:19;25.10;28.80
3067;DHT22;1544;48.834;9.194;2022-09-09T13:05:17;25.70;28.80
3067;DHT22;1544;48.834;9.194;2022-09-09T13:08:01;26.10;28.40
3067;DHT22;1544;48.834;9.194;2022-09-09T13:10:47;26.10;27.90
3067;DHT22;1544;48.834;9.194;2022-09-09T13:13:40;26.30;28.10
3067;DHT22;1544;48.834;9.194;2022-09-09T13:16:26;26.30;27.70
3067;DHT22;1544;48.834;9.194;2022-09-09T13:19:09;26.30;27.60
3067;DHT22;1544;48.834;9.194;2022-09-09T13:21:49;26.50;27.80
3067;DHT22;1544;48.834;9.194;2022-09-09T13:35:57;26.00;28.00
3067;DHT22;1544;48.834;9.194;2022-09-09T13:41:32;26.00;28.30
3067;DHT22;1544;48.834;9.194;2022-09-09T13:44:21;26.20;28.30
3067;DHT22;1544;48.834;9.194;2022-09-09T13:47:16;26.40;27.90
3067;DHT22;1544;48.834;9.194;2022-09-09T13:49:57;26.40;28.00
3067;DHT22;1544;48.834;9.194;2022-09-09T13:52:32;26.30;28.30
3067;DHT22;1544;48.834;9.194;2022-09-09T13:55:09;26.40;28.00
3067;DHT22;1544;48.834;9.194;2022-09-09T13:57:55;26.30;28.10
3067;DHT22;1544;48.834;9.194;2022-09-09T14:00:35;26.50;28.00
3067;DHT22;1544;48.834;9.194;2022-09-09T14:03:11;26.60;27.80
3067;DHT22;1544;48.834;9.194;2022-09-09T14:05:46;26.70;27.60
3067;DHT22;1544;48.834;9.194;2022-09-09T14:08:24;26.90;27.60
3067;DHT22;1544;48.834;9.194;2022-09-09T14:11:00;27.00;27.40
3067;DHT22;1544;48.834;9.194;2022-09-09T14:13:35;26.90;27.60
3067;DHT22;1544;48.834;9.194;2022-09-09T14:16:12;27.00;27.10
3067;DHT22;1544;48.834;9.194;2022-09-09T14:18:47;27.00;26.80
3067;DHT22;1544;48.834;9.194;2022-09-09T14:21:23;27.10;26.80
3067;DHT22;1544;48.834;9.194;2022-09-09T14:23:58;27.40;26.70
3067;DHT22;1544;48.834;9.194;2022-09-09T14:26:33;27.70;26.60
3067;DHT22;1544;48.834;9.194;2022-09-09T14:29:08;27.80;26.30
3067;DHT22;1544;48.834;9.194;2022-09-09T14:31:43;27.60;26.40
3067;DHT22;1544;48.834;9.194;2022-09-09T14:34:18;27.80;26.30
3067;DHT22;1544;48.834;9.194;2022-09-09T14:36:54;27.80;25.90
3067;DHT22;1544;48.834;9.194;2022-09-09T14:39:29;27.80;26.10
3067;DHT22;1544;48.834;9.194;2022-09-09T14:42:04;27.90;26.00
3067;DHT22;1544;48.834;9.194;2022-09-09T14:44:40;28.10;25.80
3067;DHT22;1544;48.834;9.194;2022-09-09T14:47:15;28.10;25.60
3067;DHT22;1544;48.834;9.194;2022-09-09T14:49:50;27.90;25.50
3067;DHT22;1544;48.834;9.194;2022-09-09T14:52:25;27.90;25.70
3067;DHT22;1544;48.834;9.194;2022-09-09T14:55:00;27.90;25.60
3067;DHT22;1544;48.834;9.194;2022-09-09T14:57:35;27.90;25.70
3067;DHT22;1544;48.834;9.194;2022-09-09T15:00:10;28.20;25.50
3067;DHT22;1544;48.834;9.194;2022-09-09T15:02:46;28.30;25.40
3067;DHT22;1544;48.834;9.194;2022-09-09T15:05:22;28.20;25.40
3067;DHT22;1544;48.834;9.194;2022-09-09T15:07:58;28.00;25.60
3067;DHT22;1544;48.834;9.194;2022-09-09T15:10:33;27.90;25.70
3067;DHT22;1544;48.834;9.194;2022-09-09T15:13:08;27.80;25.60
3067;DHT22;1544;48.834;9.194;2022-09-09T15:15:43;27.60;25.70
3067;DHT22;1544;48.834;9.194;2022-09-09T15:18:18;27.50;25.80
3067;DHT22;1544;48.834;9.194;2022-09-09T15:20:53;27.20;25.60
3067;DHT22;1544;48.834;9.194;2022-09-09T15:23:31;26.80;25.80
3067;DHT22;1544;48.834;9.194;2022-09-09T15:26:08;26.40;26.00
3067;DHT22;1544;48.834;9.194;2022-09-09T15:28:44;26.10;26.00
3067;DHT22;1544;48.834;9.194;2022-09-09T15:31:24;25.80;26.40
3067;DHT22;1544;48.834;9.194;2022-09-09T15:34:06;25.50;26.30
3067;DHT22;1544;48.834;9.194;2022-09-09T15:36:43;25.20;26.60
3067;DHT22;1544;48.834;9.194;2022-09-09T15:39:20;25.10;26.60
3067;DHT22;1544;48.834;9.194;2022-09-09T15:41:56;25.00;26.90
3067;DHT22;1544;48.834;9.194;2022-09-09T15:44:38;25.00;26.90
3067;DHT22;1544;48.834;9.194;2022-09-09T15:47:14;25.00;27.00
3067;DHT22;1544;48.834;9.194;2022-09-09T15:49:49;25.00;27.10
3067;DHT22;1544;48.834;9.194;2022-09-09T15:52:25;25.00;27.10
3067;DHT22;1544;48.834;9.194;2022-09-09T15:55:00;24.80;27.20
3067;DHT22;1544;48.834;9.194;2022-09-09T15:57:35;24.70;27.30
3067;DHT22;1544;48.834;9.194;2022-09-09T16:00:11;24.40;27.50
3067;DHT22;1544;48.834;9.194;2022-09-09T16:02:48;24.20;27.60
3067;DHT22;1544;48.834;9.194;2022-09-09T16:05:23;24.10;27.80
3067;DHT22;1544;48.834;9.194;2022-09-09T16:07:58;24.00;27.90
3067;DHT22;1544;48.834;9.194;2022-09-09T16:10:33;24.00;27.90
3067;DHT22;1544;48.834;9.194;2022-09-09T16:13:08;23.90;28.00
3067;DHT22;1544;48.834;9.194;2022-09-09T16:15:43;23.80;28.10
3067;DHT22;1544;48.834;9.194;2022-09-09T16:18:18;23.70;28.10
3067;DHT22;1544;48.834;9.194;2022-09-09T16:20:55;23.70;28.30
3067;DHT22;1544;48.834;9.194;2022-09-09T16:23:31;23.50;28.30
3067;DHT22;1544;48.834;9.194;2022-09-09T16:26:11;23.50;28.30
3067;DHT22;1544;48.834;9.194;2022-09-09T16:28:47;23.40;28.40
3067;DHT22;1544;48.834;9.194;2022-09-09T16:31:23;23.40;28.40
3067;DHT22;1544;48.834;9.194;2022-09-09T16:33:59;23.10;28.20
3067;DHT22;1544;48.834;9.194;2022-09-09T16:36:36;22.70;27.90
3067;DHT22;1544;48.834;9.194;2022-09-09T16:39:16;22.20;28.10
3067;DHT22;1544;48.834;9.194;2022-09-09T16:41:52;21.80;28.50
3067;DHT22;1544;48.834;9.194;2022-09-09T16:44:27;21.50;28.80
3067;DHT22;1544;48.834;9.194;2022-09-09T16:47:02;21.20;29.10
3067;DHT22;1544;48.834;9.194;2022-09-09T16:49:37;21.00;29.40
3067;DHT22;1544;48.834;9.194;2022-09-09T16:52:13;20.90;29.60
3067;DHT22;1544;48.834;9.194;2022-09-09T16:54:54;20.80;29.70
3067;DHT22;1544;48.834;9.194;2022-09-09T16:57:29;20.70;30.00
3067;DHT22;1544;48.834;9.194;2022-09-09T17:00:05;20.70;33.00
3067;DHT22;1544;48.834;9.194;2022-09-09T17:02:42;20.60;34.30
3067;DHT22;1544;48.834;9.194;2022-09-09T17:05:17;20.50;36.30
3067;DHT22;1544;48.834;9.194;2022-09-09T17:07:53;20.10;35.60
3067;DHT22;1544;48.834;9.194;2022-09-09T17:10:31;19.70;35.90
3067;DHT22;1544;48.834;9.194;2022-09-09T17:13:07;19.60;34.30
3067;DHT22;1544;48.834;9.194;2022-09-09T17:15:42;19.50;34.00
3067;DHT22;1544;48.834;9.194;2022-09-09T17:18:17;19.50;34.10
3067;DHT22;1544;48.834;9.194;2022-09-09T17:20:52;19.50;35.30
3067;DHT22;1544;48.834;9.194;2022-09-09T17:23:28;19.40;35.20
3067;DHT22;1544;48.834;9.194;2022-09-09T17:26:05;19.40;34.10
3067;DHT22;1544;48.834;9.194;2022-09-09T17:28:44;19.30;34.90
3067;DHT22;1544;48.834;9.194;2022-09-09T17:31:20;19.30;34.20
3067;DHT22;1544;48.834;9.194;2022-09-09T17:33:55;19.20;34.50
3067;DHT22;1544;48.834;9.194;2022-09-09T17:36:33;19.20;34.50
3067;DHT22;1544;48.834;9.194;2022-09-09T17:39:08;19.10;34.50
3067;DHT22;1544;48.834;9.194;2022-09-09T17:41:43;19.10;34.60
3067;DHT22;1544;48.834;9.194;2022-09-09T17:44:19;19.10;34.80
3067;DHT22;1544;48.834;9.194;2022-09-09T17:46:54;19.10;34.70
3067;DHT22;1544;48.834;9.194;2022-09-09T17:49:30;19.00;35.10
3067;DHT22;1544;48.834;9.194;2022-09-09T17:52:05;19.00;34.80
3067;DHT22;1544;48.834;9.194;2022-09-09T17:54:40;19.00;34.80
3067;DHT22;1544;48.834;9.194;2022-09-09T17:57:16;19.00;35.00
3067;DHT22;1544;48.834;9.194;2022-09-09T17:59:53;18.90;34.80
3067;DHT22;1544;48.834;9.194;2022-09-09T18:02:28;18.90;34.90
3067;DHT22;1544;48.834;9.194;2022-09-09T18:05:04;18.80;35.20
3067;DHT22;1544;48.834;9.194;2022-09-09T18:07:39;18.80;35.40
3067;DHT22;1544;48.834;9.194;2022-09-09T18:10:14;18.80;35.80
3067;DHT22;1544;48.834;9.194;2022-09-09T18:12:50;18.70;35.70
3067;DHT22;1544;48.834;9.194;2022-09-09T18:15:25;18.70;35.70
3067;DHT22;1544;48.834;9.194;2022-09-09T18:18:20;18.80;36.10
3067;DHT22;1544;48.834;9.194;2022-09-09T18:21:03;18.80;36.10
3067;DHT22;1544;48.834;9.194;2022-09-09T18:23:41;18.80;36.70
3067;DHT22;1544;48.834;9.194;2022-09-09T18:26:19;18.80;36.30
3067;DHT22;1544;48.834;9.194;2022-09-09T18:29:00;18.80;36.50
3067;DHT22;1544;48.834;9.194;2022-09-09T18:31:39;18.80;36.10
3067;DHT22;1544;48.834;9.194;2022-09-09T18:34:17;18.80;36.20
3067;DHT22;1544;48.834;9.194;2022-09-09T18:36:53;18.80;36.00
3067;DHT22;1544;48.834;9.194;2022-09-09T18:39:30;18.90;36.70
3067;DHT22;1544;48.834;9.194;2022-09-09T18:42:05;19.00;37.40
3067;DHT22;1544;48.834;9.194;2022-09-09T18:44:40;18.90;37.50
3067;DHT22;1544;48.834;9.194;2022-09-09T18:47:16;18.90;37.90